Time;durP1;ratioP1;P1;durP2;ratioP2;P2;SDS_P1;SDS_P2;PMS_P1;PMS_P2;Temp;Humidity;BMP_temperature;BMP_pressure;BME280_temperature;BME280_humidity;BME280_pressure;Samples;Min_cycle;Max_cycle;Signal;HPM_P1;HPM_P2
2021/06/15 00:00:10;;;;;;;6.35;1.63;;;;;;;;;;1905666;67;20115;-69
2021/06/15 00:02:35;;;;;;;9.88;1.90;;;;;;;;;;1904774;67;20202;-67
2021/06/15 00:05:02;;;;;;;8.32;1.60;;;;;;;;;;1905579;67;20284;-68
2021/06/15 00:07:28;;;;;;;8.50;2.70;;;;;;;;;;1905231;67;20093;-70
2021/06/15 00:09:53;;;;;;;6.75;2.28;;;;;;;;;;1904990;67;20175;-69
2021/06/15 00:12:19;;;;;;;5.43;1.45;;;;;;;;;;1905308;67;20100;-67
2021/06/15 00:14:45;;;;;;;6.72;1.60;;;;;;;;;;1905244;67;20149;-68
2021/06/15 00:17:10;;;;;;;6.57;1.75;;;;;;;;;;1905149;67;20076;-70
2021/06/15 00:19:36;;;;;;;8.05;1.70;;;;;;;;;;1904964;67;20084;-69
2021/06/15 00:22:02;;;;;;;11.93;1.60;;;;;;;;;;1905039;67;20099;-69
2021/06/15 00:24:27;;;;;;;5.38;1.48;;;;;;;;;;1905883;67;20092;-69
2021/06/15 00:26:53;;;;;;;11.30;2.08;;;;;;;;;;1906069;67;20571;-69
2021/06/15 00:29:18;;;;;;;7.20;1.70;;;;;;;;;;1905609;67;20081;-67
2021/06/15 00:31:44;;;;;;;6.95;1.80;;;;;;;;;;1905054;67;20080;-68
2021/06/15 00:34:09;;;;;;;6.03;2.17;;;;;;;;;;1905033;67;20459;-68
2021/06/15 00:36:35;;;;;;;9.15;1.95;;;;;;;;;;1904857;67;20095;-68
2021/06/15 00:39:01;;;;;;;6.57;1.60;;;;;;;;;;1905850;67;20160;-68
2021/06/15 00:41:27;;;;;;;8.25;1.75;;;;;;;;;;1907391;67;20485;-69
2021/06/15 00:43:52;;;;;;;5.22;1.70;;;;;;;;;;1904863;67;20088;-69
2021/06/15 00:46:18;;;;;;;8.55;1.90;;;;;;;;;;1904611;59;20152;-68
2021/06/15 00:48:44;;;;;;;6.38;1.75;;;;;;;;;;1904200;67;20535;-67
2021/06/15 00:51:10;;;;;;;7.72;1.80;;;;;;;;;;1905530;67;20311;-69
2021/06/15 00:53:36;;;;;;;9.20;2.08;;;;;;;;;;1905546;67;20088;-69
2021/06/15 00:56:06;;;;;;;5.65;1.67;;;;;;;;;;1905946;67;20503;-69
2021/06/15 00:58:32;;;;;;;6.63;1.42;;;;;;;;;;1906937;67;20142;-70
2021/06/15 01:00:58;;;;;;;12.05;1.92;;;;;;;;;;1904850;56;20501;-69
2021/06/15 01:03:25;;;;;;;19.60;2.58;;;;;;;;;;1902315;67;20085;-69
2021/06/15 01:05:51;;;;;;;9.55;1.65;;;;;;;;;;1901615;67;20093;-68
2021/06/15 01:08:46;;;;;;;6.43;1.17;;;;;;;;;;1902390;67;20442;-68
2021/06/15 01:12:09;;;;;;;6.13;1.70;;;;;;;;;;1902294;67;20097;-69
2021/06/15 01:14:55;;;;;;;7.82;1.58;;;;;;;;;;1898348;67;20447;-67
2021/06/15 01:18:01;;;;;;;5.35;1.73;;;;;;;;;;1902291;67;20085;-67
2021/06/15 01:20:34;;;;;;;6.90;2.05;;;;;;;;;;1895851;67;20089;-68
2021/06/15 01:23:28;;;;;;;6.68;1.85;;;;;;;;;;1896716;67;20089;-67
2021/06/15 01:25:59;;;;;;;3.92;1.33;;;;;;;;;;1900642;67;20144;-70
2021/06/15 01:28:30;;;;;;;5.18;1.90;;;;;;;;;;1902120;67;20084;-68
2021/06/15 01:31:04;;;;;;;4.45;1.70;;;;;;;;;;1905508;59;20115;-69
2021/06/15 01:33:37;;;;;;;12.80;1.98;;;;;;;;;;1902193;67;20112;-68
2021/06/15 01:36:04;;;;;;;9.77;1.98;;;;;;;;;;1901387;67;20089;-68
2021/06/15 01:38:40;;;;;;;6.72;1.90;;;;;;;;;;1900996;67;20128;-69
2021/06/15 01:41:09;;;;;;;5.88;1.50;;;;;;;;;;1901072;67;20569;-68
2021/06/15 01:43:43;;;;;;;8.05;1.80;;;;;;;;;;1902420;67;20096;-69
2021/06/15 01:46:11;;;;;;;8.38;1.92;;;;;;;;;;1902691;67;20144;-69
2021/06/15 01:48:59;;;;;;;8.98;1.65;;;;;;;;;;1901753;67;20166;-67
2021/06/15 01:51:26;;;;;;;17.70;2.20;;;;;;;;;;1902207;67;20093;-69
2021/06/15 01:53:58;;;;;;;8.35;1.50;;;;;;;;;;1899597;67;20382;-69
2021/06/15 01:56:28;;;;;;;9.50;1.60;;;;;;;;;;1902702;67;20430;-69
2021/06/15 01:58:56;;;;;;;9.23;2.17;;;;;;;;;;1902242;67;20120;-70
2021/06/15 02:01:23;;;;;;;4.95;1.52;;;;;;;;;;1902366;67;20146;-69
2021/06/15 02:03:53;;;;;;;6.30;1.70;;;;;;;;;;1901899;67;20104;-69
2021/06/15 02:06:21;;;;;;;5.00;1.27;;;;;;;;;;1902521;67;20089;-69
2021/06/15 02:08:53;;;;;;;7.55;1.50;;;;;;;;;;1901741;67;20084;-69
2021/06/15 02:11:21;;;;;;;10.45;1.90;;;;;;;;;;1903418;67;20096;-67
2021/06/15 02:13:48;;;;;;;11.85;2.40;;;;;;;;;;1902842;67;20096;-67
2021/06/15 02:16:15;;;;;;;10.10;1.50;;;;;;;;;;1902162;67;20088;-68
2021/06/15 02:18:45;;;;;;;15.75;2.13;;;;;;;;;;1901506;67;20109;-69
2021/06/15 02:21:14;;;;;;;7.10;1.63;;;;;;;;;;1901735;67;20165;-68
2021/06/15 02:23:43;;;;;;;6.43;1.83;;;;;;;;;;1903205;67;20369;-68
2021/06/15 02:26:12;;;;;;;7.90;1.38;;;;;;;;;;1901655;67;20103;-69
2021/06/15 02:28:38;;;;;;;8.57;1.67;;;;;;;;;;1901990;67;20092;-68
2021/06/15 02:31:05;;;;;;;4.78;1.30;;;;;;;;;;1902011;67;20401;-67
2021/06/15 02:33:39;;;;;;;8.25;1.88;;;;;;;;;;1902670;67;20545;-69
2021/06/15 02:36:10;;;;;;;7.60;1.70;;;;;;;;;;1902733;67;20088;-69
2021/06/15 02:38:40;;;;;;;4.53;1.25;;;;;;;;;;1902229;67;20077;-69
2021/06/15 02:41:09;;;;;;;7.93;2.03;;;;;;;;;;1901878;67;20203;-67
2021/06/15 02:43:36;;;;;;;6.45;1.60;;;;;;;;;;1901577;67;20097;-69
2021/06/15 02:46:04;;;;;;;5.68;1.55;;;;;;;;;;1903612;67;20100;-69
2021/06/15 02:48:36;;;;;;;4.43;1.20;;;;;;;;;;1902552;67;20084;-69
2021/06/15 02:51:04;;;;;;;5.95;1.70;;;;;;;;;;1903401;67;20210;-70
2021/06/15 02:53:39;;;;;;;6.05;1.30;;;;;;;;;;1904717;67;20081;-68
2021/06/15 02:56:09;;;;;;;7.55;1.77;;;;;;;;;;1903419;67;20085;-70
2021/06/15 02:58:35;;;;;;;7.05;1.90;;;;;;;;;;1902591;67;20488;-69
2021/06/15 03:01:00;;;;;;;8.23;2.33;;;;;;;;;;1902145;67;20093;-68
2021/06/15 03:03:26;;;;;;;5.82;1.42;;;;;;;;;;1904909;67;20088;-68
2021/06/15 03:05:52;;;;;;;9.88;2.20;;;;;;;;;;1903376;67;20088;-68
2021/06/15 03:08:17;;;;;;;9.95;1.80;;;;;;;;;;1902327;67;20088;-68
2021/06/15 03:10:43;;;;;;;5.40;1.80;;;;;;;;;;1902964;67;20081;-67
2021/06/15 03:13:23;;;;;;;7.72;1.95;;;;;;;;;;1902186;67;20130;-70
2021/06/15 03:15:50;;;;;;;5.63;1.40;;;;;;;;;;1901883;67;20081;-67
2021/06/15 03:18:16;;;;;;;5.22;1.20;;;;;;;;;;1903173;67;20104;-67
2021/06/15 03:20:44;;;;;;;8.50;1.30;;;;;;;;;;1903596;67;20389;-69
2021/06/15 03:23:34;;;;;;;5.55;1.58;;;;;;;;;;1903123;59;20159;-69
2021/06/15 03:26:06;;;;;;;6.75;1.60;;;;;;;;;;1902873;67;20080;-67
2021/06/15 03:28:33;;;;;;;6.13;1.40;;;;;;;;;;1902793;67;20095;-67
2021/06/15 03:31:01;;;;;;;6.72;1.70;;;;;;;;;;1902838;67;20088;-68
2021/06/15 03:33:27;;;;;;;7.38;1.60;;;;;;;;;;1902665;67;20089;-60
2021/06/15 03:35:57;;;;;;;8.73;1.38;;;;;;;;;;1900642;67;20527;-59
2021/06/15 03:38:32;;;;;;;10.27;1.95;;;;;;;;;;1903340;67;20121;-60
2021/06/15 03:40:59;;;;;;;8.75;1.90;;;;;;;;;;1902773;67;20538;-59
2021/06/15 03:43:28;;;;;;;8.45;1.52;;;;;;;;;;1901836;67;20091;-59
2021/06/15 03:46:09;;;;;;;8.35;1.38;;;;;;;;;;1902148;67;20689;-59
2021/06/15 03:48:42;;;;;;;4.65;1.30;;;;;;;;;;1902178;67;20088;-60
2021/06/15 03:51:29;;;;;;;4.32;1.40;;;;;;;;;;1903151;67;20466;-61
2021/06/15 03:54:06;;;;;;;9.40;1.75;;;;;;;;;;1901675;67;20416;-59
2021/06/15 03:56:37;;;;;;;9.52;1.80;;;;;;;;;;1902558;67;20092;-59
2021/06/15 03:59:08;;;;;;;5.25;1.85;;;;;;;;;;1902904;67;20199;-59
2021/06/15 04:01:39;;;;;;;7.63;1.70;;;;;;;;;;1902872;67;20543;-59
2021/06/15 04:04:10;;;;;;;8.27;2.07;;;;;;;;;;1902638;67;20093;-66
2021/06/15 04:06:39;;;;;;;10.93;1.75;;;;;;;;;;1901878;67;20081;-68
2021/06/15 04:09:06;;;;;;;7.15;1.67;;;;;;;;;;1902415;67;20136;-68
2021/06/15 04:11:35;;;;;;;6.05;1.67;;;;;;;;;;1902559;67;20219;-66
2021/06/15 04:14:05;;;;;;;7.60;1.77;;;;;;;;;;1902260;67;20085;-68
2021/06/15 04:16:31;;;;;;;5.80;1.30;;;;;;;;;;1903599;67;20085;-69
2021/06/15 04:19:01;;;;;;;6.43;1.30;;;;;;;;;;1902401;67;20081;-68
2021/06/15 04:21:32;;;;;;;8.23;1.40;;;;;;;;;;1901894;67;20135;-67
2021/06/15 04:24:02;;;;;;;7.88;1.75;;;;;;;;;;1902864;67;20108;-68
2021/06/15 04:26:28;;;;;;;8.70;1.60;;;;;;;;;;1903103;67;20509;-70
2021/06/15 04:28:54;;;;;;;6.22;1.40;;;;;;;;;;1901595;67;20091;-69
2021/06/15 04:31:23;;;;;;;6.88;1.55;;;;;;;;;;1902174;67;20076;-67
2021/06/15 04:33:51;;;;;;;5.35;1.30;;;;;;;;;;1902500;67;20431;-66
2021/06/15 04:36:17;;;;;;;5.10;1.48;;;;;;;;;;1902141;67;20085;-67
2021/06/15 04:38:48;;;;;;;8.40;1.02;;;;;;;;;;1901950;67;20080;-68
2021/06/15 04:41:17;;;;;;;5.78;1.10;;;;;;;;;;1903430;67;20088;-69
2021/06/15 04:44:11;;;;;;;8.25;1.67;;;;;;;;;;1902472;67;20125;-69
2021/06/15 04:46:43;;;;;;;6.55;1.27;;;;;;;;;;1902753;67;20497;-69
2021/06/15 04:49:35;;;;;;;8.27;1.25;;;;;;;;;;1902134;67;20096;-67
2021/06/15 04:52:03;;;;;;;;;;;;;;;;;;1903239;67;20104;-69
2021/06/15 04:54:35;;;;;;;4.38;1.30;;;;;;;;;;1902129;67;19965;-68
2021/06/15 04:57:07;;;;;;;8.27;1.73;;;;;;;;;;1903367;67;20096;-68
2021/06/15 04:59:33;;;;;;;;;;;;;;;;;;1902298;67;20088;-70
2021/06/15 05:01:59;;;;;;;7.75;1.55;;;;;;;;;;1902898;67;19957;-68
2021/06/15 05:04:26;;;;;;;8.30;1.52;;;;;;;;;;1902549;67;20412;-67
2021/06/15 05:06:51;;;;;;;3.50;1.60;;;;;;;;;;1902730;67;20091;-69
2021/06/15 05:09:23;;;;;;;5.20;1.40;;;;;;;;;;1902070;67;20200;-68
2021/06/15 05:11:49;;;;;;;6.97;1.50;;;;;;;;;;1901755;67;20077;-67
2021/06/15 05:14:17;;;;;;;4.50;1.30;;;;;;;;;;1901497;67;20435;-67
2021/06/15 05:16:44;;;;;;;7.30;1.40;;;;;;;;;;1902761;67;20526;-67
2021/06/15 05:19:10;;;;;;;6.20;1.20;;;;;;;;;;1901561;67;20507;-69
2021/06/15 05:21:53;;;;;;;3.83;1.33;;;;;;;;;;1901782;67;20111;-66
2021/06/15 05:24:46;;;;;;;5.72;1.10;;;;;;;;;;1902538;67;20080;-68
2021/06/15 05:27:12;;;;;;;7.70;1.65;;;;;;;;;;1902354;67;20087;-67
2021/06/15 05:29:37;;;;;;;7.43;1.70;;;;;;;;;;1902299;67;20576;-66
2021/06/15 05:32:06;;;;;;;8.55;2.00;;;;;;;;;;1901797;67;20151;-68
2021/06/15 05:34:32;;;;;;;4.00;1.30;;;;;;;;;;1901882;67;20080;-67
2021/06/15 05:36:58;;;;;;;9.27;1.35;;;;;;;;;;1902929;59;20104;-69
2021/06/15 05:39:24;;;;;;;8.43;1.50;;;;;;;;;;1902361;67;20089;-68
2021/06/15 05:41:49;;;;;;;8.98;1.40;;;;;;;;;;1901306;67;20120;-69
2021/06/15 05:44:15;;;;;;;9.07;1.60;;;;;;;;;;1901517;67;20143;-67
2021/06/15 05:46:40;;;;;;;10.05;1.38;;;;;;;;;;1901794;75;20101;-70
2021/06/15 05:49:05;;;;;;;6.53;1.52;;;;;;;;;;1901479;67;20112;-70
2021/06/15 05:51:32;;;;;;;8.88;2.03;;;;;;;;;;1902331;67;20211;-69
2021/06/15 05:54:02;;;;;;;7.88;1.48;;;;;;;;;;1902362;67;20076;-68
2021/06/15 05:56:31;;;;;;;8.40;1.55;;;;;;;;;;1901700;67;20089;-68
2021/06/15 05:58:56;;;;;;;6.50;1.30;;;;;;;;;;1902875;67;20285;-67
2021/06/15 06:01:22;;;;;;;7.22;1.40;;;;;;;;;;1902231;67;20135;-69
2021/06/15 06:03:59;;;;;;;6.53;1.20;;;;;;;;;;1902088;67;20100;-68
2021/06/15 06:09:08;;;;;;;6.65;1.35;;;;;;;;;;1900968;67;20460;-67
2021/06/15 06:11:34;;;;;;;11.27;2.25;;;;;;;;;;1902409;67;20092;-68
2021/06/15 06:13:59;;;;;;;4.97;1.25;;;;;;;;;;1902842;75;20127;-66
2021/06/15 06:16:26;;;;;;;8.45;1.20;;;;;;;;;;1901751;67;20089;-69
2021/06/15 06:18:52;;;;;;;9.02;1.50;;;;;;;;;;1902085;67;20377;-69
2021/06/15 06:21:18;;;;;;;8.52;1.50;;;;;;;;;;1901098;75;20092;-69
2021/06/15 06:23:44;;;;;;;13.88;1.75;;;;;;;;;;1902643;75;20084;-67
2021/06/15 06:26:10;;;;;;;10.27;1.50;;;;;;;;;;1902453;67;20097;-68
2021/06/15 06:28:35;;;;;;;6.97;1.58;;;;;;;;;;1901874;67;20085;-69
2021/06/15 06:31:01;;;;;;;4.38;1.10;;;;;;;;;;1902530;67;20084;-67
2021/06/15 06:33:26;;;;;;;7.20;1.45;;;;;;;;;;1905351;67;20089;-70
2021/06/15 06:35:52;;;;;;;6.95;1.38;;;;;;;;;;1904119;67;20450;-68
2021/06/15 06:38:17;;;;;;;7.93;1.70;;;;;;;;;;1902566;67;20500;-68
2021/06/15 06:40:43;;;;;;;11.90;1.73;;;;;;;;;;1904481;67;20104;-71
2021/06/15 06:43:09;;;;;;;8.93;1.77;;;;;;;;;;1903440;67;20095;-70
2021/06/15 06:45:35;;;;;;;6.40;1.75;;;;;;;;;;1902522;75;20437;-70
2021/06/15 06:48:03;;;;;;;11.48;1.42;;;;;;;;;;1902866;67;20400;-70
2021/06/15 06:50:29;;;;;;;10.02;1.70;;;;;;;;;;1902870;67;20589;-68
2021/06/15 06:52:54;;;;;;;6.47;1.83;;;;;;;;;;1902868;67;20092;-69
2021/06/15 06:55:20;;;;;;;9.80;1.50;;;;;;;;;;1903785;67;20089;-70
2021/06/15 06:57:47;;;;;;;16.60;2.28;;;;;;;;;;1902638;67;20756;-67
2021/06/15 07:00:14;;;;;;;14.32;1.90;;;;;;;;;;1903648;67;20137;-69
2021/06/15 07:02:40;;;;;;;5.30;1.40;;;;;;;;;;1904109;67;20319;-69
2021/06/15 07:05:06;;;;;;;6.78;1.42;;;;;;;;;;1901904;67;20528;-69
2021/06/15 07:07:33;;;;;;;7.05;1.38;;;;;;;;;;1902265;67;20151;-69
2021/06/15 07:09:59;;;;;;;4.45;1.23;;;;;;;;;;1902067;67;20081;-71
2021/06/15 07:12:24;;;;;;;9.27;1.90;;;;;;;;;;1902561;67;20149;-74
2021/06/15 07:14:50;;;;;;;3.95;1.35;;;;;;;;;;1902146;67;20089;-70
2021/06/15 07:17:16;;;;;;;10.68;1.83;;;;;;;;;;1902813;67;20092;-68
2021/06/15 07:19:41;;;;;;;8.68;1.40;;;;;;;;;;1902206;67;20551;-68
2021/06/15 07:22:07;;;;;;;8.85;1.33;;;;;;;;;;1902336;75;20235;-69
2021/06/15 07:24:34;;;;;;;7.95;1.40;;;;;;;;;;1902718;75;20094;-69
2021/06/15 07:27:00;;;;;;;8.95;1.60;;;;;;;;;;1902208;75;20274;-69
2021/06/15 07:29:25;;;;;;;11.48;1.40;;;;;;;;;;1903571;67;20255;-69
2021/06/15 07:31:51;;;;;;;9.27;1.70;;;;;;;;;;1901858;67;20085;-67
2021/06/15 07:34:16;;;;;;;15.82;1.80;;;;;;;;;;1902284;67;20467;-59
2021/06/15 07:36:42;;;;;;;9.48;2.15;;;;;;;;;;1902432;75;20457;-59
2021/06/15 07:39:08;;;;;;;6.53;1.50;;;;;;;;;;1901883;67;20093;-59
2021/06/15 07:41:33;;;;;;;9.18;1.50;;;;;;;;;;1902841;75;20093;-59
2021/06/15 07:43:59;;;;;;;4.00;0.88;;;;;;;;;;1901751;67;20486;-59
2021/06/15 07:46:24;;;;;;;8.43;2.67;;;;;;;;;;1902444;75;20453;-59
2021/06/15 07:48:51;;;;;;;8.20;1.40;;;;;;;;;;1901998;67;20089;-58
2021/06/15 07:51:17;;;;;;;5.68;1.20;;;;;;;;;;1901810;67;20111;-59
2021/06/15 07:53:43;;;;;;;5.93;1.20;;;;;;;;;;1902327;75;20091;-60
2021/06/15 07:56:09;;;;;;;7.43;1.20;;;;;;;;;;1901908;75;20392;-59
2021/06/15 07:58:35;;;;;;;6.40;1.10;;;;;;;;;;1901872;67;20150;-59
2021/06/15 08:01:00;;;;;;;9.18;1.27;;;;;;;;;;1901230;67;20093;-59
2021/06/15 08:05:00;;;;;;;9.48;1.40;;;;;;;;;;1910805;66;20447;-70
2021/06/15 08:07:26;;;;;;;5.90;1.20;;;;;;;;;;1910483;67;20091;-68
2021/06/15 08:09:52;;;;;;;4.65;1.10;;;;;;;;;;1911160;68;20098;-69
2021/06/15 08:12:20;;;;;;;9.27;1.40;;;;;;;;;;1911392;75;20087;-68
2021/06/15 08:14:46;;;;;;;6.47;0.95;;;;;;;;;;1910562;67;20149;-75
2021/06/15 08:17:11;;;;;;;7.30;1.48;;;;;;;;;;1908162;67;20092;-71
2021/06/15 08:19:37;;;;;;;8.98;1.17;;;;;;;;;;1908821;67;20084;-69
2021/06/15 08:22:02;;;;;;;6.50;1.23;;;;;;;;;;1909802;67;20095;-69
2021/06/15 08:24:28;;;;;;;10.85;1.00;;;;;;;;;;1907602;67;20119;-70
2021/06/15 08:26:53;;;;;;;9.00;1.25;;;;;;;;;;1905771;67;20153;-71
2021/06/15 08:29:19;;;;;;;8.40;1.10;;;;;;;;;;1909114;67;20149;-69
2021/06/15 08:31:44;;;;;;;17.85;1.42;;;;;;;;;;1908516;67;20088;-71
2021/06/15 08:34:11;;;;;;;8.35;1.08;;;;;;;;;;1908078;67;20095;-69
2021/06/15 08:36:37;;;;;;;4.18;1.35;;;;;;;;;;1908686;67;20080;-68
2021/06/15 08:39:05;;;;;;;4.60;1.10;;;;;;;;;;1907791;75;20091;-70
2021/06/15 08:41:31;;;;;;;6.97;1.17;;;;;;;;;;1906374;67;20102;-70
2021/06/15 08:43:58;;;;;;;8.75;1.58;;;;;;;;;;1908556;67;20096;-68
2021/06/15 08:46:23;;;;;;;11.18;2.05;;;;;;;;;;1908385;67;20727;-70
2021/06/15 08:48:49;;;;;;;8.52;1.55;;;;;;;;;;1908484;67;20110;-70
2021/06/15 08:51:15;;;;;;;7.55;1.80;;;;;;;;;;1909665;67;20091;-70
2021/06/15 08:53:41;;;;;;;11.52;1.35;;;;;;;;;;1909570;67;20415;-69
2021/06/15 08:56:28;;;;;;;7.50;1.15;;;;;;;;;;1908348;67;20092;-72
2021/06/15 08:59:12;;;;;;;11.30;1.63;;;;;;;;;;1907718;67;20137;-69
2021/06/15 09:01:37;;;;;;;6.32;1.20;;;;;;;;;;1908843;67;20084;-69
2021/06/15 09:04:03;;;;;;;7.85;1.10;;;;;;;;;;1908669;67;20586;-70
2021/06/15 09:06:29;;;;;;;7.13;1.40;;;;;;;;;;1907704;67;20535;-69
2021/06/15 09:08:57;;;;;;;5.55;1.35;;;;;;;;;;1909470;67;20098;-70
2021/06/15 09:11:23;;;;;;;5.03;1.33;;;;;;;;;;1907387;67;20226;-69
2021/06/15 09:13:50;;;;;;;6.93;1.52;;;;;;;;;;1907204;67;20096;-69
2021/06/15 09:16:32;;;;;;;9.57;1.25;;;;;;;;;;1905963;67;20492;-70
2021/06/15 09:19:01;;;;;;;6.97;1.10;;;;;;;;;;1906097;67;20395;-69
2021/06/15 09:21:29;;;;;;;8.18;1.27;;;;;;;;;;1905719;67;20080;-70
2021/06/15 09:24:09;;;;;;;11.30;1.45;;;;;;;;;;1905729;67;20080;-70
2021/06/15 09:27:05;;;;;;;5.18;1.23;;;;;;;;;;1907303;67;20091;-69
2021/06/15 09:29:41;;;;;;;6.75;1.38;;;;;;;;;;1906044;67;20488;-70
2021/06/15 09:32:27;;;;;;;11.27;1.20;;;;;;;;;;1905855;67;20153;-70
2021/06/15 09:35:00;;;;;;;7.95;1.00;;;;;;;;;;1905878;67;20080;-70
2021/06/15 09:37:56;;;;;;;10.93;1.25;;;;;;;;;;1906301;67;20522;-70
2021/06/15 09:40:40;;;;;;;8.80;2.28;;;;;;;;;;1905079;67;20152;-71
2021/06/15 09:43:11;;;;;;;5.10;1.10;;;;;;;;;;1906220;75;20450;-70
2021/06/15 09:45:43;;;;;;;7.43;0.82;;;;;;;;;;1905282;75;20428;-68
2021/06/15 09:48:31;;;;;;;6.25;0.85;;;;;;;;;;1905280;75;20462;-67
2021/06/15 09:51:14;;;;;;;5.32;0.93;;;;;;;;;;1906577;67;20096;-68
2021/06/15 09:53:45;;;;;;;7.75;0.85;;;;;;;;;;1905464;59;20146;-69
2021/06/15 09:56:16;;;;;;;2.60;0.70;;;;;;;;;;1905284;67;20109;-67
2021/06/15 09:58:48;;;;;;;7.97;1.35;;;;;;;;;;1905491;67;20114;-70
2021/06/15 10:01:34;;;;;;;8.15;1.88;;;;;;;;;;1906293;67;20080;-69
2021/06/15 10:04:09;;;;;;;7.05;1.42;;;;;;;;;;1905477;75;20100;-69
2021/06/15 10:06:36;;;;;;;6.95;1.48;;;;;;;;;;1906320;67;20160;-72
2021/06/15 10:09:03;;;;;;;8.63;1.83;;;;;;;;;;1906073;67;20134;-71
2021/06/15 10:11:31;;;;;;;10.90;1.50;;;;;;;;;;1905550;67;20515;-70
2021/06/15 10:13:58;;;;;;;11.80;2.45;;;;;;;;;;1905267;67;20080;-69
2021/06/15 10:16:23;;;;;;;9.02;1.98;;;;;;;;;;1904443;67;20096;-73
2021/06/15 10:18:49;;;;;;;5.70;1.50;;;;;;;;;;1906249;75;20198;-71
2021/06/15 10:21:16;;;;;;;6.97;1.30;;;;;;;;;;1905193;67;20084;-70
2021/06/15 10:23:43;;;;;;;12.25;1.88;;;;;;;;;;1906182;67;20092;-72
2021/06/15 10:26:10;;;;;;;10.77;3.17;;;;;;;;;;1905148;67;20377;-72
2021/06/15 10:28:36;;;;;;;5.57;1.60;;;;;;;;;;1905252;67;20110;-69
2021/06/15 10:31:03;;;;;;;11.82;2.70;;;;;;;;;;1905245;67;20388;-69
2021/06/15 10:33:41;;;;;;;11.15;2.00;;;;;;;;;;1905378;67;20134;-71
2021/06/15 10:36:07;;;;;;;8.23;2.38;;;;;;;;;;1905842;67;20439;-71
2021/06/15 10:38:32;;;;;;;11.43;2.08;;;;;;;;;;1906139;67;20130;-70
2021/06/15 10:41:01;;;;;;;6.45;1.70;;;;;;;;;;1905289;67;20362;-69
2021/06/15 10:43:30;;;;;;;6.15;1.65;;;;;;;;;;1905438;67;20483;-71
2021/06/15 10:46:01;;;;;;;7.78;1.85;;;;;;;;;;1905936;67;20153;-71
2021/06/15 10:48:30;;;;;;;8.68;1.67;;;;;;;;;;1906802;67;20076;-67
2021/06/15 10:50:59;;;;;;;10.15;1.70;;;;;;;;;;1905155;67;20092;-67
2021/06/15 10:53:36;;;;;;;8.60;1.60;;;;;;;;;;1905611;67;20135;-65
2021/06/15 10:56:05;;;;;;;7.43;1.70;;;;;;;;;;1904668;67;20147;-65
2021/06/15 10:58:30;;;;;;;16.23;1.83;;;;;;;;;;1905865;67;20177;-67
2021/06/15 11:00:56;;;;;;;9.18;2.20;;;;;;;;;;1905753;67;20088;-67
2021/06/15 11:03:25;;;;;;;6.68;1.60;;;;;;;;;;1905740;67;20505;-66
2021/06/15 11:06:02;;;;;;;6.25;1.50;;;;;;;;;;1907514;67;20150;-64
2021/06/15 11:08:31;;;;;;;4.80;1.13;;;;;;;;;;1906516;67;20088;-65
2021/06/15 11:11:01;;;;;;;8.18;1.50;;;;;;;;;;1905359;67;20111;-66
2021/06/15 11:13:41;;;;;;;6.82;1.35;;;;;;;;;;1905456;67;20115;-65
2021/06/15 11:16:31;;;;;;;4.88;1.20;;;;;;;;;;1905205;67;20144;-65
2021/06/15 11:21:46;;;;;;;7.68;1.27;;;;;;;;;;1905489;75;20096;-65
2021/06/15 11:24:45;;;;;;;7.30;1.17;;;;;;;;;;1906159;67;20457;-65
2021/06/15 11:27:16;;;;;;;16.05;1.10;;;;;;;;;;1905628;67;20095;-63
2021/06/15 11:29:43;;;;;;;8.43;1.08;;;;;;;;;;1905419;67;20088;-65
2021/06/15 11:32:18;;;;;;;3.85;0.90;;;;;;;;;;1904986;67;20096;-67
2021/06/15 11:34:53;;;;;;;2.80;0.80;;;;;;;;;;1905601;67;20255;-66
2021/06/15 11:37:19;;;;;;;5.05;0.40;;;;;;;;;;1906072;67;20460;-66
2021/06/15 11:39:45;;;;;;;1.40;0.50;;;;;;;;;;1905759;67;20308;-65
2021/06/15 11:42:20;;;;;;;6.22;0.75;;;;;;;;;;1905102;67;20500;-66
2021/06/15 11:44:59;;;;;;;3.67;0.90;;;;;;;;;;1906033;67;20102;-65
2021/06/15 11:47:30;;;;;;;6.75;0.90;;;;;;;;;;1905789;67;20123;-67
2021/06/15 11:50:17;;;;;;;9.30;1.23;;;;;;;;;;1904894;67;20205;-65
2021/06/15 11:53:07;;;;;;;4.47;0.90;;;;;;;;;;1905777;67;20143;-64
2021/06/15 11:56:01;;;;;;;6.65;1.50;;;;;;;;;;1905638;67;20206;-65
2021/06/15 11:58:27;;;;;;;2.92;0.60;;;;;;;;;;1904664;67;20100;-65
2021/06/15 12:01:06;;;;;;;2.60;0.60;;;;;;;;;;1905781;67;20088;-64
2021/06/15 12:03:40;;;;;;;3.38;0.80;;;;;;;;;;1905176;67;20146;-63
2021/06/15 12:06:06;;;;;;;2.40;0.65;;;;;;;;;;1904790;67;20091;-65
2021/06/15 12:08:35;;;;;;;5.25;1.10;;;;;;;;;;1905672;67;20139;-67
2021/06/15 12:11:03;;;;;;;2.97;0.50;;;;;;;;;;1905468;67;20084;-66
2021/06/15 12:13:33;;;;;;;7.30;0.52;;;;;;;;;;1904087;67;20083;-66
2021/06/15 12:16:03;;;;;;;1.38;0.50;;;;;;;;;;1903691;67;20176;-66
2021/06/15 12:18:36;;;;;;;1.20;0.40;;;;;;;;;;1904033;67;20281;-66
2021/06/15 12:21:06;;;;;;;1.67;0.50;;;;;;;;;;1906584;67;20298;-66
2021/06/15 12:23:56;;;;;;;2.50;0.50;;;;;;;;;;1904037;67;20085;-67
2021/06/15 12:26:40;;;;;;;4.18;0.52;;;;;;;;;;1905538;67;20514;-67
2021/06/15 12:29:14;;;;;;;1.25;0.40;;;;;;;;;;1905308;67;20360;-67
2021/06/15 12:31:45;;;;;;;0.93;0.38;;;;;;;;;;1908560;67;20080;-66
2021/06/15 12:34:18;;;;;;;4.18;0.55;;;;;;;;;;1907378;67;20091;-66
2021/06/15 12:36:50;;;;;;;1.77;0.30;;;;;;;;;;1905847;67;20083;-66
2021/06/15 12:39:17;;;;;;;;;;;;;;;;;;1905202;67;20084;-65
2021/06/15 12:41:49;;;;;;;1.67;0.25;;;;;;;;;;1906093;67;20025;-64
2021/06/15 12:44:15;;;;;;;3.17;0.40;;;;;;;;;;1905855;67;20369;-63
2021/06/15 12:46:42;;;;;;;2.00;0.45;;;;;;;;;;1904196;67;20108;-66
2021/06/15 12:49:19;;;;;;;2.55;0.60;;;;;;;;;;1905843;67;20080;-66
2021/06/15 12:51:46;;;;;;;1.48;0.25;;;;;;;;;;1905671;67;20132;-68
2021/06/15 12:54:27;;;;;;;0.73;0.30;;;;;;;;;;1906034;67;20110;-67
2021/06/15 12:57:08;;;;;;;2.22;0.40;;;;;;;;;;1905584;67;20416;-66
2021/06/15 12:59:36;;;;;;;3.88;0.57;;;;;;;;;;1905799;67;20103;-65
2021/06/15 13:02:16;;;;;;;1.35;0.30;;;;;;;;;;1905633;67;20316;-67
2021/06/15 13:04:53;;;;;;;2.88;0.50;;;;;;;;;;1908627;67;20369;-67
2021/06/15 13:07:19;;;;;;;1.85;0.32;;;;;;;;;;1906693;67;20084;-65
2021/06/15 13:09:47;;;;;;;3.13;0.50;;;;;;;;;;1905733;67;20127;-64
2021/06/15 13:12:28;;;;;;;2.80;0.50;;;;;;;;;;1906004;67;20564;-65
2021/06/15 13:14:57;;;;;;;1.43;0.47;;;;;;;;;;1907094;67;20088;-65
2021/06/15 13:17:24;;;;;;;1.98;0.38;;;;;;;;;;1905350;67;20107;-66
2021/06/15 13:19:52;;;;;;;0.75;0.20;;;;;;;;;;1905402;67;20100;-68
2021/06/15 13:22:25;;;;;;;2.40;0.40;;;;;;;;;;1905288;67;20373;-67
2021/06/15 13:24:50;;;;;;;1.05;0.43;;;;;;;;;;1904673;67;20100;-65
2021/06/15 13:27:43;;;;;;;5.55;0.60;;;;;;;;;;1906978;75;20072;-64
2021/06/15 13:30:20;;;;;;;0.43;0.20;;;;;;;;;;1905845;75;20274;-65
2021/06/15 13:33:19;;;;;;;2.17;0.60;;;;;;;;;;1905697;67;20084;-66
2021/06/15 13:35:49;;;;;;;2.55;0.63;;;;;;;;;;1906269;59;20571;-64
2021/06/15 13:38:23;;;;;;;2.50;0.30;;;;;;;;;;1905230;67;20092;-64
2021/06/15 13:40:57;;;;;;;1.17;0.45;;;;;;;;;;1905196;67;20088;-65
2021/06/15 13:43:43;;;;;;;1.00;0.38;;;;;;;;;;1906036;67;20144;-65
2021/06/15 13:46:14;;;;;;;3.40;0.52;;;;;;;;;;1905674;67;20145;-65
2021/06/15 13:48:40;;;;;;;1.60;0.30;;;;;;;;;;1905222;67;20100;-66
2021/06/15 13:51:16;;;;;;;1.85;0.70;;;;;;;;;;1905560;67;20091;-65
2021/06/15 13:53:42;;;;;;;5.45;0.77;;;;;;;;;;1906693;67;20358;-65
2021/06/15 13:56:08;;;;;;;2.30;0.50;;;;;;;;;;1905049;67;20474;-65
2021/06/15 13:58:35;;;;;;;2.70;0.52;;;;;;;;;;1902869;67;20159;-66
2021/06/15 14:01:00;;;;;;;2.13;0.50;;;;;;;;;;1905033;67;20081;-64
2021/06/15 14:03:26;;;;;;;2.33;0.60;;;;;;;;;;1905841;67;21362;-67
2021/06/15 14:05:51;;;;;;;7.18;0.70;;;;;;;;;;1905326;75;20085;-64
2021/06/15 14:08:20;;;;;;;1.55;0.38;;;;;;;;;;1906228;75;20389;-66
2021/06/15 14:10:46;;;;;;;3.15;0.80;;;;;;;;;;1905830;67;20080;-63
2021/06/15 14:13:16;;;;;;;1.75;0.70;;;;;;;;;;1906142;67;20111;-65
2021/06/15 14:15:42;;;;;;;1.55;0.45;;;;;;;;;;1906323;67;20512;-65
2021/06/15 14:18:07;;;;;;;1.63;0.45;;;;;;;;;;1906365;75;20088;-66
2021/06/15 14:20:36;;;;;;;5.50;0.50;;;;;;;;;;1905923;67;20088;-65
2021/06/15 14:23:03;;;;;;;3.42;0.60;;;;;;;;;;1905676;75;20584;-66
2021/06/15 14:25:31;;;;;;;4.82;0.43;;;;;;;;;;1904922;67;20085;-65
2021/06/15 14:27:58;;;;;;;2.15;0.55;;;;;;;;;;1905630;75;20129;-65
2021/06/15 14:30:25;;;;;;;8.32;0.77;;;;;;;;;;1904847;67;20136;-65
2021/06/15 14:32:51;;;;;;;3.00;0.63;;;;;;;;;;1905553;75;20092;-66
2021/06/15 14:35:17;;;;;;;3.55;0.55;;;;;;;;;;1906264;67;20109;-64
2021/06/15 14:37:45;;;;;;;6.95;0.80;;;;;;;;;;1904850;75;20549;-66
2021/06/15 14:40:12;;;;;;;1.70;0.47;;;;;;;;;;1905739;67;20491;-66
2021/06/15 14:42:38;;;;;;;2.72;0.60;;;;;;;;;;1905508;75;20467;-64
2021/06/15 14:45:05;;;;;;;2.38;0.60;;;;;;;;;;1905566;75;20140;-66
2021/06/15 14:47:31;;;;;;;2.55;0.47;;;;;;;;;;1905324;67;20085;-65
2021/06/15 14:49:56;;;;;;;2.47;0.60;;;;;;;;;;1906300;67;20134;-65
2021/06/15 14:52:22;;;;;;;3.17;0.30;;;;;;;;;;1906174;67;20108;-65
2021/06/15 14:54:47;;;;;;;2.60;0.47;;;;;;;;;;1905541;75;20103;-65
2021/06/15 14:57:13;;;;;;;2.78;0.50;;;;;;;;;;1906303;75;20802;-65
2021/06/15 14:59:39;;;;;;;1.35;0.52;;;;;;;;;;1905025;75;20331;-64
2021/06/15 15:02:04;;;;;;;4.45;0.60;;;;;;;;;;1904898;67;20100;-64
2021/06/15 15:04:30;;;;;;;5.22;0.70;;;;;;;;;;1906351;67;20092;-65
2021/06/15 15:06:56;;;;;;;5.20;0.82;;;;;;;;;;1904464;75;20096;-64